Humidity-temperature Sensor

Selected Measurement Type: Relative Humidity

 
Relative Humidity [%]     6 entries per hour
Showing data from 12/15/2016 (00:00:00 Z) to 12/14/2016 (00:01:00 Z)
Previous Next [ Day | 3-Days | 7-Days ]
First Last
Prev [ Day | 3-Days | 7-Days ] Next
First Last

Start Time:     :
End Time:     :     
Time (in GMT) :00 :50 :40 :30 :20 :10
Previous Next [ Day | 3-Days | 7-Days ]
First Last
Prev [ Day | 3-Days | 7-Days ] Next
First Last


123 => good data
MM => data is determined as missing
-- => data not received/configured
Back to Top Back to Top
12/15/2016 00:00 to 23:10 94.79 96.03 93.84 92.86 92.44 92.62
12/14/2016 23:00 to 22:10 93.05 93.21 92.44 91.97 92.33 91.40
12/14/2016 22:00 to 21:10 91.43 91.20 92.20 92.77 93.26 93.17
12/14/2016 21:00 to 20:10 93.97 93.32 92.12 89.68 88.04 88.40
12/14/2016 20:00 to 19:10 88.32 88.90 89.35 88.95 87.39 87.70
12/14/2016 19:00 to 18:10 86.70 86.48 87.12 86.27 85.94 86.36
12/14/2016 18:00 to 17:10 87.54 87.24 85.98 85.60 85.69 85.41
12/14/2016 17:00 to 16:10 85.08 85.35 84.93 86.19 86.55 86.28
12/14/2016 16:00 to 15:10 85.45 86.27 87.37 87.54 84.63 84.97
12/14/2016 15:00 to 14:10 83.79 85.22 88.17 87.52 86.88 84.93
12/14/2016 14:00 to 13:10 86.65 85.06 85.31 84.05 84.63 84.85
12/14/2016 13:00 to 12:10 84.80 84.34 83.60 83.90 82.95 82.32
12/14/2016 12:00 to 11:10 82.85 82.78 84.00 84.74 84.17 84.15
12/14/2016 11:00 to 10:10 84.07 83.96 83.77 82.99 82.60 82.79
12/14/2016 10:00 to 9:10 84.19 83.20 83.81 84.45 84.11 84.53
12/14/2016 09:00 to 8:10 85.22 84.82 85.50 85.33 85.45 85.01
12/14/2016 08:00 to 7:10 84.78 85.60 85.41 85.71 86.19 85.54
12/14/2016 07:00 to 6:10 86.07 87.35 88.27 88.29 86.72 85.83
12/14/2016 06:00 to 5:10 85.88 84.00 83.20 82.85 82.81 82.26
12/14/2016 05:00 to 4:10 83.18 82.55 83.00 82.09 82.39 81.04
12/14/2016 04:00 to 3:10 81.67 80.96 82.05 81.21 80.07 81.54
12/14/2016 03:00 to 2:10 81.54 80.66 79.93 80.81 80.30 80.18
12/14/2016 02:00 to 1:10 79.82 80.39 80.43 80.70 81.63 81.15
12/14/2016 01:00 to 0:10 81.86 80.37 78.87 80.14 80.77 79.46